Time;durP1;ratioP1;P1;durP2;ratioP2;P2;SDS_P1;SDS_P2;PMS_P1;PMS_P2;Temp;Humidity;BMP_temperature;BMP_pressure;BME280_temperature;BME280_humidity;BME280_pressure;Samples;Min_cycle;Max_cycle;Signal;HPM_P1;HPM_P2
2022/11/12 00:28:17;;;;;;;31.77;6.43;;;;;;;;;;6212106;22;20203;-90
2022/11/12 00:31:42;;;;;;;38.40;6.53;;;;;;;;;;6232654;23;20229;-91
2022/11/12 00:35:07;;;;;;;23.87;5.73;;;;;;;;;;6232502;23;20171;-91
2022/11/12 00:38:31;;;;;;;20.10;5.53;;;;;;;;;;6232076;23;20194;-90
2022/11/12 00:41:56;;;;;;;19.87;6.00;;;;;;;;;;6232771;23;20163;-91
2022/11/12 00:45:22;;;;;;;24.37;6.10;;;;;;;;;;6232323;23;20171;-90
2022/11/12 00:48:46;;;;;;;22.60;5.77;;;;;;;;;;6231182;23;20183;-92
2022/11/12 00:52:10;;;;;;;30.13;6.07;;;;;;;;;;6232196;23;20193;-89
2022/11/12 00:55:35;;;;;;;27.27;5.50;;;;;;;;;;6231418;23;20217;-90
2022/11/12 00:58:59;;;;;;;19.47;5.70;;;;;;;;;;6229181;23;20175;-91
2022/11/12 01:02:27;;;;;;;15.67;6.33;;;;;;;;;;6230604;23;20167;-90
2022/11/12 01:05:51;;;;;;;19.17;6.03;;;;;;;;;;6229954;23;20167;-92
2022/11/12 01:09:15;;;;;;;24.00;5.30;;;;;;;;;;6230948;23;20187;-92
2022/11/12 01:12:40;;;;;;;14.13;5.40;;;;;;;;;;6229689;23;20175;-89
2022/11/12 01:16:07;;;;;;;19.87;5.20;;;;;;;;;;6232342;23;20209;-91
2022/11/12 01:19:34;;;;;;;13.87;5.13;;;;;;;;;;6232975;23;20178;-90
2022/11/12 01:22:58;;;;;;;11.70;5.30;;;;;;;;;;6232659;23;20171;-92
2022/11/12 01:26:24;;;;;;;13.33;5.23;;;;;;;;;;6234227;23;20171;-91
2022/11/12 01:29:48;;;;;;;20.53;5.43;;;;;;;;;;6233706;23;20216;-92
2022/11/12 01:33:12;;;;;;;16.97;4.93;;;;;;;;;;6233824;23;20167;-89
2022/11/12 01:36:39;;;;;;;19.13;5.00;;;;;;;;;;6233405;23;20202;-91
2022/11/12 01:40:04;;;;;;;21.37;5.80;;;;;;;;;;6233639;23;20171;-88
2022/11/12 01:43:27;;;;;;;32.00;5.97;;;;;;;;;;6232936;23;20199;-90
2022/11/12 01:46:58;;;;;;;19.50;5.67;;;;;;;;;;6232144;23;20232;-90
2022/11/12 01:50:24;;;;;;;31.03;5.30;;;;;;;;;;6232727;23;20255;-93
2022/11/12 01:53:52;;;;;;;19.53;5.23;;;;;;;;;;6230930;23;20175;-89
2022/11/12 01:57:19;;;;;;;18.03;5.50;;;;;;;;;;6232811;23;20172;-90
2022/11/12 02:00:44;;;;;;;17.13;5.57;;;;;;;;;;6232901;23;20170;-93
2022/11/12 02:04:08;;;;;;;24.07;5.37;;;;;;;;;;6232042;23;20191;-90
2022/11/12 02:07:33;;;;;;;29.00;5.20;;;;;;;;;;6230853;23;20166;-91
2022/11/12 02:10:59;;;;;;;22.30;5.20;;;;;;;;;;6231162;23;20164;-92
2022/11/12 02:14:26;;;;;;;21.27;7.60;;;;;;;;;;6231518;23;20155;-91
2022/11/12 02:17:50;;;;;;;19.37;6.20;;;;;;;;;;6229597;23;20175;-91
2022/11/12 02:21:14;;;;;;;39.50;6.30;;;;;;;;;;6231364;23;20171;-91
2022/11/12 02:24:41;;;;;;;51.67;6.97;;;;;;;;;;6229417;23;20191;-90
2022/11/12 02:28:07;;;;;;;34.47;6.00;;;;;;;;;;6228980;23;20242;-91
2022/11/12 02:31:31;;;;;;;72.40;6.90;;;;;;;;;;6227143;23;20172;-92
2022/11/12 02:34:54;;;;;;;40.73;7.00;;;;;;;;;;6230762;23;20191;-90
2022/11/12 02:38:18;;;;;;;29.90;7.13;;;;;;;;;;6227780;23;20172;-90
2022/11/12 02:41:43;;;;;;;27.10;6.70;;;;;;;;;;6228920;23;20178;-90
2022/11/12 02:45:08;;;;;;;27.47;6.50;;;;;;;;;;6228068;23;20194;-92
2022/11/12 02:48:31;;;;;;;18.13;6.00;;;;;;;;;;6229245;23;20172;-91
2022/11/12 02:51:55;;;;;;;30.70;7.00;;;;;;;;;;6229524;23;20167;-90
2022/11/12 02:55:19;;;;;;;48.33;6.60;;;;;;;;;;6228654;23;20558;-93
2022/11/12 02:58:45;;;;;;;19.80;6.43;;;;;;;;;;6229393;23;20295;-92
2022/11/12 03:02:09;;;;;;;22.07;6.37;;;;;;;;;;6230099;23;20171;-90
2022/11/12 03:05:34;;;;;;;56.07;7.63;;;;;;;;;;6228054;23;20527;-91
2022/11/12 03:08:59;;;;;;;31.80;6.60;;;;;;;;;;6231584;23;20160;-91
2022/11/12 03:12:23;;;;;;;42.93;6.73;;;;;;;;;;6230461;23;20203;-89
2022/11/12 03:16:03;;;;;;;55.13;7.13;;;;;;;;;;6231015;23;20218;-90
2022/11/12 03:19:28;;;;;;;36.53;6.83;;;;;;;;;;6231828;23;20155;-90
2022/11/12 03:22:56;;;;;;;42.43;6.27;;;;;;;;;;6229906;23;20167;-91
2022/11/12 03:26:23;;;;;;;34.17;6.17;;;;;;;;;;6233014;23;20175;-90
2022/11/12 03:29:47;;;;;;;30.57;5.50;;;;;;;;;;6232113;23;20168;-93
2022/11/12 03:33:13;;;;;;;22.10;5.33;;;;;;;;;;6231278;23;20215;-91
2022/11/12 03:36:38;;;;;;;30.10;5.17;;;;;;;;;;6233565;23;20285;-91
2022/11/12 03:40:02;;;;;;;23.27;5.20;;;;;;;;;;6231858;23;20164;-91
2022/11/12 03:43:27;;;;;;;16.37;5.20;;;;;;;;;;6231801;23;20163;-91
2022/11/12 03:46:54;;;;;;;15.53;5.30;;;;;;;;;;6232610;23;20159;-90
2022/11/12 03:50:19;;;;;;;14.13;5.40;;;;;;;;;;6232462;23;20168;-92
2022/11/12 03:53:45;;;;;;;13.30;5.33;;;;;;;;;;6231076;23;20224;-90
2022/11/12 03:57:11;;;;;;;26.03;4.40;;;;;;;;;;6231799;23;20194;-91
2022/11/12 04:00:35;;;;;;;37.57;5.33;;;;;;;;;;6230627;23;20167;-89
2022/11/12 04:03:59;;;;;;;23.27;5.27;;;;;;;;;;6230265;23;20211;-92
2022/11/12 04:11:08;;;;;;;33.30;4.70;;;;;;;;;;6230683;23;20535;-91
2022/11/12 04:14:32;;;;;;;22.50;4.17;;;;;;;;;;6232032;23;20159;-90
2022/11/12 04:21:53;;;;;;;16.43;4.40;;;;;;;;;;6231144;23;20218;-91
2022/11/12 04:32:47;;;;;;;12.70;4.20;;;;;;;;;;6230695;23;20167;-93
2022/11/12 04:36:11;;;;;;;17.63;4.47;;;;;;;;;;6231047;23;20171;-90
2022/11/12 04:39:36;;;;;;;28.37;4.33;;;;;;;;;;6232001;23;20187;-91
2022/11/12 04:47:17;;;;;;;8.40;4.10;;;;;;;;;;6229881;23;20502;-90
2022/11/12 04:50:43;;;;;;;24.80;4.67;;;;;;;;;;6230219;23;20202;-91
2022/11/12 04:54:08;;;;;;;13.53;3.80;;;;;;;;;;6233742;23;20206;-92
2022/11/12 04:57:32;;;;;;;12.20;3.93;;;;;;;;;;6230911;23;20168;-91
2022/11/12 05:04:58;;;;;;;19.03;4.20;;;;;;;;;;6229490;23;20198;-90
2022/11/12 05:08:24;;;;;;;25.87;4.47;;;;;;;;;;6229782;23;20163;-90
2022/11/12 05:11:49;;;;;;;25.47;4.90;;;;;;;;;;6230350;23;20295;-92
2022/11/12 05:15:13;;;;;;;16.43;4.07;;;;;;;;;;6230122;23;20167;-92
2022/11/12 05:18:37;;;;;;;10.93;4.00;;;;;;;;;;6230064;23;20183;-91
2022/11/12 05:22:05;;;;;;;23.83;3.80;;;;;;;;;;6231244;23;20167;-91
2022/11/12 05:25:31;;;;;;;9.57;3.33;;;;;;;;;;6231461;23;20199;-94
2022/11/12 05:28:55;;;;;;;10.73;3.63;;;;;;;;;;6229813;23;20186;-92
2022/11/12 05:32:20;;;;;;;14.37;3.70;;;;;;;;;;6227489;23;20205;-89
2022/11/12 05:35:43;;;;;;;25.17;4.20;;;;;;;;;;6230585;23;20171;-91
2022/11/12 05:39:08;;;;;;;19.53;4.07;;;;;;;;;;6230760;23;20224;-92
2022/11/12 05:42:33;;;;;;;16.13;3.90;;;;;;;;;;6232206;23;20164;-93
2022/11/12 05:46:00;;;;;;;22.70;4.00;;;;;;;;;;6230470;23;20183;-91
2022/11/12 05:49:24;;;;;;;17.77;4.10;;;;;;;;;;6230633;23;20540;-89
2022/11/12 05:52:48;;;;;;;20.23;4.47;;;;;;;;;;6231443;23;20195;-89
2022/11/12 05:56:13;;;;;;;25.97;4.17;;;;;;;;;;6232094;23;20191;-89
2022/11/12 05:59:38;;;;;;;39.70;4.90;;;;;;;;;;6232645;23;20206;-90
2022/11/12 06:03:02;;;;;;;23.23;5.00;;;;;;;;;;6232814;23;20190;-90
2022/11/12 06:06:26;;;;;;;67.63;6.03;;;;;;;;;;6231317;23;20198;-90
2022/11/12 06:09:50;;;;;;;23.90;4.20;;;;;;;;;;6232833;23;20236;-92
2022/11/12 06:13:17;;;;;;;11.43;4.20;;;;;;;;;;6237723;23;20167;-89
2022/11/12 06:16:43;;;;;;;20.93;4.53;;;;;;;;;;6231270;23;20171;-91
2022/11/12 06:20:08;;;;;;;18.63;3.90;;;;;;;;;;6233855;23;20500;-91
2022/11/12 06:23:32;;;;;;;20.90;3.40;;;;;;;;;;6234226;23;20238;-89
2022/11/12 06:26:57;;;;;;;9.83;3.40;;;;;;;;;;6233073;23;20191;-90
2022/11/12 06:30:26;;;;;;;23.77;4.20;;;;;;;;;;6233258;23;20143;-91
2022/11/12 06:33:54;;;;;;;19.57;5.77;;;;;;;;;;6233809;23;20179;-91
2022/11/12 06:37:18;;;;;;;28.27;5.47;;;;;;;;;;6233930;23;20163;-91
2022/11/12 06:40:43;;;;;;;13.30;4.43;;;;;;;;;;6234907;23;20195;-91
2022/11/12 06:44:07;;;;;;;29.03;4.10;;;;;;;;;;6234034;23;20167;-93
2022/11/12 06:47:47;;;;;;;47.43;5.43;;;;;;;;;;6236670;23;20291;-92
2022/11/12 06:51:17;;;;;;;22.50;4.47;;;;;;;;;;6236926;23;20191;-91
2022/11/12 06:54:41;;;;;;;11.93;4.13;;;;;;;;;;6235797;23;20217;-91
2022/11/12 06:58:06;;;;;;;41.90;4.97;;;;;;;;;;6234228;23;20316;-91
2022/11/12 07:01:31;;;;;;;9.10;4.47;;;;;;;;;;6235005;23;20163;-90
2022/11/12 07:04:59;;;;;;;19.73;4.90;;;;;;;;;;6233248;23;20238;-91
2022/11/12 07:08:25;;;;;;;60.27;6.27;;;;;;;;;;6232124;23;20504;-91
2022/11/12 07:11:49;;;;;;;23.47;5.03;;;;;;;;;;6231201;23;20614;-90
2022/11/12 07:15:13;;;;;;;17.27;4.73;;;;;;;;;;6233173;23;20165;-90
2022/11/12 07:18:38;;;;;;;27.03;5.40;;;;;;;;;;6233605;23;20190;-90
2022/11/12 07:22:02;;;;;;;17.53;4.57;;;;;;;;;;6232627;23;20175;-91
2022/11/12 07:25:28;;;;;;;14.23;4.43;;;;;;;;;;6233800;23;20214;-90
2022/11/12 07:28:55;;;;;;;11.27;4.30;;;;;;;;;;6234696;23;20504;-90
2022/11/12 07:32:19;;;;;;;15.53;5.20;;;;;;;;;;6233477;23;20243;-90
2022/11/12 07:35:44;;;;;;;10.53;5.13;;;;;;;;;;6232739;23;20179;-88
2022/11/12 07:39:09;;;;;;;17.40;4.57;;;;;;;;;;6233661;23;20167;-89
2022/11/12 07:42:36;;;;;;;9.80;4.83;;;;;;;;;;6232688;23;20171;-89
2022/11/12 07:46:10;;;;;;;8.90;4.53;;;;;;;;;;6233482;23;21093;-90
2022/11/12 07:49:35;;;;;;;18.83;5.20;;;;;;;;;;6232629;23;20167;-91
2022/11/12 07:52:59;;;;;;;16.53;4.77;;;;;;;;;;6233892;23;20159;-91
2022/11/12 07:56:24;;;;;;;18.40;4.60;;;;;;;;;;6230825;23;20383;-92
2022/11/12 07:59:50;;;;;;;25.93;4.90;;;;;;;;;;6232934;23;20195;-89
2022/11/12 08:03:15;;;;;;;9.23;4.70;;;;;;;;;;6232251;23;20167;-89
2022/11/12 08:06:39;;;;;;;14.30;4.73;;;;;;;;;;6231272;23;20211;-91
2022/11/12 08:10:03;;;;;;;7.73;4.20;;;;;;;;;;6232606;23;20171;-91
2022/11/12 08:13:28;;;;;;;11.40;5.03;;;;;;;;;;6233984;23;20171;-89
2022/11/12 08:16:54;;;;;;;25.43;5.77;;;;;;;;;;6232085;23;20225;-90
2022/11/12 08:20:18;;;;;;;20.20;4.57;;;;;;;;;;6233748;23;20399;-91
2022/11/12 08:23:43;;;;;;;10.73;4.87;;;;;;;;;;6233183;23;20171;-89
2022/11/12 08:27:10;;;;;;;9.47;5.17;;;;;;;;;;6232720;23;20179;-90
2022/11/12 08:30:35;;;;;;;11.37;5.80;;;;;;;;;;6231764;23;20179;-91
2022/11/12 08:34:10;;;;;;;24.67;5.80;;;;;;;;;;6231940;23;20187;-91
2022/11/12 08:37:35;;;;;;;11.20;6.23;;;;;;;;;;6233779;23;20199;-91
2022/11/12 08:41:01;;;;;;;22.57;7.80;;;;;;;;;;6232958;23;20151;-90
2022/11/12 08:44:25;;;;;;;14.40;6.93;;;;;;;;;;6230910;23;20294;-90
2022/11/12 08:47:49;;;;;;;9.37;5.67;;;;;;;;;;6231995;23;20287;-90
2022/11/12 08:51:15;;;;;;;16.13;5.53;;;;;;;;;;6230564;23;20182;-90
2022/11/12 08:54:39;;;;;;;10.60;4.40;;;;;;;;;;6230439;23;20619;-90
2022/11/12 08:58:04;;;;;;;14.27;6.43;;;;;;;;;;6230889;23;20182;-90
2022/11/12 09:01:28;;;;;;;8.63;5.70;;;;;;;;;;6228070;23;20195;-91
2022/11/12 09:08:42;;;;;;;8.30;4.87;;;;;;;;;;6233113;23;20224;-92
2022/11/12 09:12:07;;;;;;;7.67;4.90;;;;;;;;;;6232991;23;20220;-90
2022/11/12 23:32:58;;;;;;;46.70;7.30;;;;;;;;;;6228565;22;20215;-90
2022/11/12 23:36:23;;;;;;;66.97;9.17;;;;;;;;;;6231947;23;20185;-89
2022/11/12 23:39:48;;;;;;;60.30;9.37;;;;;;;;;;6229527;23;20194;-87
2022/11/12 23:43:12;;;;;;;54.13;8.83;;;;;;;;;;6231141;23;20171;-90
2022/11/12 23:46:55;;;;;;;43.87;8.23;;;;;;;;;;6230166;23;20191;-89
2022/11/12 23:50:20;;;;;;;42.20;9.27;;;;;;;;;;6228892;23;20191;-88
2022/11/12 23:53:45;;;;;;;57.83;7.93;;;;;;;;;;6230219;23;20240;-90
2022/11/12 23:57:10;;;;;;;83.73;8.37;;;;;;;;;;6229640;23;20211;-89
